<?xml version='1.0' encoding='UTF-8'?><gpx version="1.1" creator="JPX - https://github.com/jenetics/jpx" xmlns="http://www.topografix.com/GPX/1/1"><trk><trkseg><trkpt lat="41.4215413" lon="2.1351896"><ele>275.0</ele><time>2026-04-25T08:56:44.366Z</time></trkpt><trkpt lat="41.421462" lon="2.1352519"><ele>275.0</ele><time>2026-04-25T08:56:46.368Z</time></trkpt><trkpt lat="41.4214179" lon="2.135314"><ele>275.0</ele><time>2026-04-25T08:56:51.387Z</time></trkpt><trkpt lat="41.4213599" lon="2.1353682"><ele>275.0</ele><time>2026-04-25T08:56:57.475Z</time></trkpt><trkpt lat="41.4214272" lon="2.1353715"><ele>275.0</ele><time>2026-04-25T08:57:21.398Z</time></trkpt><trkpt lat="41.4214887" lon="2.1353227"><ele>275.0</ele><time>2026-04-25T08:57:26.388Z</time></trkpt><trkpt lat="41.421554" lon="2.1352934"><ele>275.0</ele><time>2026-04-25T08:57:31.468Z</time></trkpt><trkpt lat="41.4216248" lon="2.1352956"><ele>275.0</ele><time>2026-04-25T08:57:36.483Z</time></trkpt><trkpt lat="41.4216893" lon="2.1352756"><ele>275.0</ele><time>2026-04-25T08:57:42.424Z</time></trkpt><trkpt lat="41.4217515" lon="2.1352541"><ele>275.0</ele><time>2026-04-25T08:57:46.326Z</time></trkpt><trkpt lat="41.4218088" lon="2.1352128"><ele>275.0</ele><time>2026-04-25T08:57:51.472Z</time></trkpt><trkpt lat="41.4218765" lon="2.1352201"><ele>275.0</ele><time>2026-04-25T08:57:55.406Z</time></trkpt><trkpt lat="41.4219492" lon="2.1352127"><ele>275.0</ele><time>2026-04-25T08:58:00.385Z</time></trkpt><trkpt lat="41.4220137" lon="2.1352053"><ele>275.0</ele><time>2026-04-25T08:58:06.33Z</time></trkpt><trkpt lat="41.4220427" lon="2.1351185"><ele>275.0</ele><time>2026-04-25T08:58:11.437Z</time></trkpt><trkpt lat="41.4220871" lon="2.1350346"><ele>275.0</ele><time>2026-04-25T08:58:18.449Z</time></trkpt><trkpt lat="41.422137" lon="2.1349714"><ele>275.0</ele><time>2026-04-25T08:58:23.44Z</time></trkpt><trkpt lat="41.4220789" lon="2.1349182"><ele>275.0</ele><time>2026-04-25T08:58:26.411Z</time></trkpt><trkpt lat="41.4220962" lon="2.1348245"><ele>275.0</ele><time>2026-04-25T08:58:31.401Z</time></trkpt><trkpt lat="41.4221353" lon="2.1347519"><ele>275.0</ele><time>2026-04-25T08:58:36.346Z</time></trkpt><trkpt lat="41.4221663" lon="2.1346622"><ele>275.0</ele><time>2026-04-25T08:58:40.465Z</time></trkpt><trkpt lat="41.4222142" lon="2.134593"><ele>276.0</ele><time>2026-04-25T08:58:46.383Z</time></trkpt><trkpt lat="41.4222253" lon="2.13451"><ele>277.0</ele><time>2026-04-25T08:58:52.525Z</time></trkpt><trkpt lat="41.4222578" lon="2.1344229"><ele>278.0</ele><time>2026-04-25T08:58:57.432Z</time></trkpt><trkpt lat="41.4222323" lon="2.1343428"><ele>279.0</ele><time>2026-04-25T09:00:01.455Z</time></trkpt><trkpt lat="41.4222579" lon="2.1342428"><ele>280.0</ele><time>2026-04-25T09:00:07.422Z</time></trkpt><trkpt lat="41.4222661" lon="2.1341493"><ele>281.0</ele><time>2026-04-25T09:00:11.462Z</time></trkpt><trkpt lat="41.4222822" lon="2.1340678"><ele>282.0</ele><time>2026-04-25T09:00:16.471Z</time></trkpt><trkpt lat="41.4222669" lon="2.1339811"><ele>286.42857142857144</ele><time>2026-04-25T09:00:33.434Z</time></trkpt><trkpt lat="41.4222569" lon="2.1338851"><ele>290.85714285714283</ele><time>2026-04-25T09:00:42.367Z</time></trkpt><trkpt lat="41.4222924" lon="2.1338036"><ele>295.2857142857143</ele><time>2026-04-25T09:00:49.376Z</time></trkpt><trkpt lat="41.4223239" lon="2.1337266"><ele>299.7142857142857</ele><time>2026-04-25T09:00:59.311Z</time></trkpt><trkpt lat="41.422341" lon="2.1336414"><ele>304.14285714285717</ele><time>2026-04-25T09:01:06.369Z</time></trkpt><trkpt lat="41.4223493" lon="2.1335533"><ele>308.57142857142856</ele><time>2026-04-25T09:01:19.421Z</time></trkpt><trkpt lat="41.4223819" lon="2.1334704"><ele>313.0</ele><time>2026-04-25T09:01:27.394Z</time></trkpt><trkpt lat="41.4223905" lon="2.1333796"><ele>313.0</ele><time>2026-04-25T09:01:34.395Z</time></trkpt><trkpt lat="41.4224348" lon="2.1333125"><ele>313.0</ele><time>2026-04-25T09:01:42.448Z</time></trkpt><trkpt lat="41.4224922" lon="2.1332651"><ele>313.0</ele><time>2026-04-25T09:01:49.208Z</time></trkpt><trkpt lat="41.4225241" lon="2.1331828"><ele>313.0</ele><time>2026-04-25T09:01:53.384Z</time></trkpt><trkpt lat="41.4225289" lon="2.1330951"><ele>313.0</ele><time>2026-04-25T09:02:08.461Z</time></trkpt><trkpt lat="41.422574" lon="2.1330348"><ele>313.0</ele><time>2026-04-25T09:02:22.369Z</time></trkpt><trkpt lat="41.4225938" lon="2.1329505"><ele>313.0</ele><time>2026-04-25T09:02:38.439Z</time></trkpt><trkpt lat="41.4226248" lon="2.1328641"><ele>314.2857142857143</ele><time>2026-04-25T09:02:50.438Z</time></trkpt><trkpt lat="41.4226184" lon="2.1327738"><ele>315.57142857142856</ele><time>2026-04-25T09:02:57.452Z</time></trkpt><trkpt lat="41.4225954" lon="2.1326906"><ele>316.8571428571429</ele><time>2026-04-25T09:03:05.417Z</time></trkpt><trkpt lat="41.422576" lon="2.1325815"><ele>318.1428571428571</ele><time>2026-04-25T09:03:12.01Z</time></trkpt><trkpt lat="41.422562" lon="2.1324977"><ele>319.42857142857144</ele><time>2026-04-25T09:03:14.464Z</time></trkpt><trkpt lat="41.422556" lon="2.1324107"><ele>320.7142857142857</ele><time>2026-04-25T09:03:26.461Z</time></trkpt><trkpt lat="41.4225271" lon="2.13233"><ele>322.0</ele><time>2026-04-25T09:03:37.264Z</time></trkpt><trkpt lat="41.4225449" lon="2.1322387"><ele>323.42857142857144</ele><time>2026-04-25T09:03:43.366Z</time></trkpt><trkpt lat="41.4225872" lon="2.1321729"><ele>324.8571428571429</ele><time>2026-04-25T09:03:50.372Z</time></trkpt><trkpt lat="41.4225652" lon="2.1320466"><ele>326.2857142857143</ele><time>2026-04-25T09:03:55.369Z</time></trkpt><trkpt lat="41.4225521" lon="2.1319606"><ele>327.7142857142857</ele><time>2026-04-25T09:04:03.465Z</time></trkpt><trkpt lat="41.4226048" lon="2.1318872"><ele>329.14285714285717</ele><time>2026-04-25T09:04:09.44Z</time></trkpt><trkpt lat="41.4226309" lon="2.1317967"><ele>330.57142857142856</ele><time>2026-04-25T09:04:14.35Z</time></trkpt><trkpt lat="41.4226502" lon="2.1317034"><ele>332.0</ele><time>2026-04-25T09:04:18.49Z</time></trkpt><trkpt lat="41.4226314" lon="2.1316116"><ele>332.85714285714283</ele><time>2026-04-25T09:04:22.407Z</time></trkpt><trkpt lat="41.4226073" lon="2.1315186"><ele>333.7142857142857</ele><time>2026-04-25T09:04:27.452Z</time></trkpt><trkpt lat="41.4226307" lon="2.1314163"><ele>334.57142857142856</ele><time>2026-04-25T09:04:36.508Z</time></trkpt><trkpt lat="41.4226636" lon="2.1313385"><ele>335.42857142857144</ele><time>2026-04-25T09:04:49.33Z</time></trkpt><trkpt lat="41.4226833" lon="2.131241"><ele>336.2857142857143</ele><time>2026-04-25T09:04:53.374Z</time></trkpt><trkpt lat="41.4227036" lon="2.1311467"><ele>337.14285714285717</ele><time>2026-04-25T09:04:58.478Z</time></trkpt><trkpt lat="41.422701" lon="2.1310548"><ele>338.0</ele><time>2026-04-25T09:05:03.505Z</time></trkpt><trkpt lat="41.4226972" lon="2.1309441"><ele>338.0</ele><time>2026-04-25T09:05:13.369Z</time></trkpt><trkpt lat="41.4227507" lon="2.1308775"><ele>338.0</ele><time>2026-04-25T09:05:21.485Z</time></trkpt><trkpt lat="41.4227005" lon="2.1308165"><ele>338.0</ele><time>2026-04-25T09:05:27.447Z</time></trkpt><trkpt lat="41.4227126" lon="2.1307072"><ele>338.0</ele><time>2026-04-25T09:05:32.42Z</time></trkpt><trkpt lat="41.4227456" lon="2.1306325"><ele>338.0</ele><time>2026-04-25T09:05:37.432Z</time></trkpt><trkpt lat="41.4227923" lon="2.1305696"><ele>338.0</ele><time>2026-04-25T09:05:47.434Z</time></trkpt><trkpt lat="41.4227711" lon="2.1304804"><ele>338.0</ele><time>2026-04-25T09:05:55.478Z</time></trkpt><trkpt lat="41.4227479" lon="2.130392"><ele>340.33333333333337</ele><time>2026-04-25T09:06:00.349Z</time></trkpt><trkpt lat="41.4227465" lon="2.1302834"><ele>342.6666666666667</ele><time>2026-04-25T09:06:03.428Z</time></trkpt><trkpt lat="41.4227631" lon="2.1301826"><ele>345.0</ele><time>2026-04-25T09:06:07.927Z</time></trkpt><trkpt lat="41.4227549" lon="2.1300873"><ele>347.3333333333333</ele><time>2026-04-25T09:06:12.367Z</time></trkpt><trkpt lat="41.422691" lon="2.13003"><ele>349.66666666666663</ele><time>2026-04-25T09:06:16.413Z</time></trkpt><trkpt lat="41.4226411" lon="2.1299769"><ele>352.0</ele><time>2026-04-25T09:06:21.401Z</time></trkpt><trkpt lat="41.4225622" lon="2.1299423"><ele>352.0</ele><time>2026-04-25T09:06:26.852Z</time></trkpt><trkpt lat="41.4224908" lon="2.1299193"><ele>352.0</ele><time>2026-04-25T09:06:31.509Z</time></trkpt><trkpt lat="41.4224817" lon="2.1298191"><ele>352.0</ele><time>2026-04-25T09:06:39.453Z</time></trkpt><trkpt lat="41.4224607" lon="2.1297376"><ele>352.0</ele><time>2026-04-25T09:06:44.442Z</time></trkpt><trkpt lat="41.422415" lon="2.1296671"><ele>352.0</ele><time>2026-04-25T09:06:49.431Z</time></trkpt><trkpt lat="41.4223803" lon="2.129592"><ele>352.0</ele><time>2026-04-25T09:06:54.42Z</time></trkpt><trkpt lat="41.4223334" lon="2.1295144"><ele>352.0</ele><time>2026-04-25T09:06:59.411Z</time></trkpt><trkpt lat="41.4222719" lon="2.1294855"><ele>352.0</ele><time>2026-04-25T09:07:06.419Z</time></trkpt><trkpt lat="41.4223125" lon="2.1295662"><ele>352.0</ele><time>2026-04-25T09:07:17.468Z</time></trkpt><trkpt lat="41.4223577" lon="2.1296547"><ele>352.0</ele><time>2026-04-25T09:07:23.409Z</time></trkpt><trkpt lat="41.4224223" lon="2.1296876"><ele>352.0</ele><time>2026-04-25T09:07:32.439Z</time></trkpt><trkpt lat="41.4223716" lon="2.1297648"><ele>352.0</ele><time>2026-04-25T09:07:35.41Z</time></trkpt><trkpt lat="41.422347" lon="2.1298458"><ele>352.0</ele><time>2026-04-25T09:07:45.392Z</time></trkpt><trkpt lat="41.4223668" lon="2.1299277"><ele>352.0</ele><time>2026-04-25T09:08:03.488Z</time></trkpt><trkpt lat="41.4224584" lon="2.1300177"><ele>352.0</ele><time>2026-04-25T09:08:12.368Z</time></trkpt><trkpt lat="41.4224602" lon="2.1301038"><ele>352.0</ele><time>2026-04-25T09:08:18.363Z</time></trkpt><trkpt lat="41.4224699" lon="2.1302926"><ele>352.0</ele><time>2026-04-25T09:08:25.443Z</time></trkpt><trkpt lat="41.422451" lon="2.1303902"><ele>352.0</ele><time>2026-04-25T09:08:29.448Z</time></trkpt><trkpt lat="41.4224488" lon="2.1304759"><ele>352.0</ele><time>2026-04-25T09:08:38.389Z</time></trkpt><trkpt lat="41.4224351" lon="2.1305658"><ele>352.0</ele><time>2026-04-25T09:08:43.38Z</time></trkpt><trkpt lat="41.4224375" lon="2.1306511"><ele>349.66666666666663</ele><time>2026-04-25T09:08:50.403Z</time></trkpt><trkpt lat="41.4223972" lon="2.1307253"><ele>347.3333333333333</ele><time>2026-04-25T09:08:56.376Z</time></trkpt><trkpt lat="41.4223846" lon="2.1308106"><ele>345.0</ele><time>2026-04-25T09:09:10.387Z</time></trkpt><trkpt lat="41.4223648" lon="2.1309685"><ele>342.6666666666667</ele><time>2026-04-25T09:09:13.471Z</time></trkpt><trkpt lat="41.422392" lon="2.1310481"><ele>340.33333333333337</ele><time>2026-04-25T09:09:21.49Z</time></trkpt><trkpt lat="41.422388" lon="2.1311335"><ele>338.0</ele><time>2026-04-25T09:09:29.409Z</time></trkpt><trkpt lat="41.4223601" lon="2.131224"><ele>338.0</ele><time>2026-04-25T09:09:34.769Z</time></trkpt><trkpt lat="41.4223273" lon="2.1312992"><ele>338.0</ele><time>2026-04-25T09:09:38.831Z</time></trkpt><trkpt lat="41.4223146" lon="2.1313881"><ele>338.0</ele><time>2026-04-25T09:09:41.891Z</time></trkpt><trkpt lat="41.4223388" lon="2.1314671"><ele>338.0</ele><time>2026-04-25T09:09:49.232Z</time></trkpt><trkpt lat="41.4222743" lon="2.1314417"><ele>338.0</ele><time>2026-04-25T09:09:56.482Z</time></trkpt><trkpt lat="41.422245" lon="2.1315242"><ele>338.0</ele><time>2026-04-25T09:09:58.347Z</time></trkpt><trkpt lat="41.4222559" lon="2.1316227"><ele>338.0</ele><time>2026-04-25T09:10:02.509Z</time></trkpt><trkpt lat="41.4222444" lon="2.1317219"><ele>336.79999999999995</ele><time>2026-04-25T09:10:06.69Z</time></trkpt><trkpt lat="41.422309" lon="2.1317204"><ele>335.6</ele><time>2026-04-25T09:10:14.832Z</time></trkpt><trkpt lat="41.4223421" lon="2.1316455"><ele>334.4</ele><time>2026-04-25T09:10:21.164Z</time></trkpt><trkpt lat="41.4222643" lon="2.1317891"><ele>333.20000000000005</ele><time>2026-04-25T09:10:22.153Z</time></trkpt><trkpt lat="41.4223175" lon="2.1317106"><ele>332.0</ele><time>2026-04-25T09:10:23.127Z</time></trkpt><trkpt lat="41.422155" lon="2.1320509"><ele>332.0</ele><time>2026-04-25T09:10:30.329Z</time></trkpt><trkpt lat="41.4220792" lon="2.1322078"><ele>332.0</ele><time>2026-04-25T09:10:31.388Z</time></trkpt><trkpt lat="41.4220476" lon="2.1322806"><ele>332.0</ele><time>2026-04-25T09:10:34.437Z</time></trkpt><trkpt lat="41.4221002" lon="2.1323275"><ele>332.0</ele><time>2026-04-25T09:10:41.453Z</time></trkpt><trkpt lat="41.422149" lon="2.1323816"><ele>332.0</ele><time>2026-04-25T09:10:50.412Z</time></trkpt><trkpt lat="41.4220885" lon="2.1325125"><ele>332.0</ele><time>2026-04-25T09:10:54.507Z</time></trkpt><trkpt lat="41.422069" lon="2.1325938"><ele>323.0</ele><time>2026-04-25T09:11:02.011Z</time></trkpt><trkpt lat="41.4220462" lon="2.1326823"><ele>314.0</ele><time>2026-04-25T09:11:12.649Z</time></trkpt><trkpt lat="41.4219751" lon="2.1326671"><ele>305.0</ele><time>2026-04-25T09:11:19.089Z</time></trkpt><trkpt lat="41.4220299" lon="2.1328505"><ele>296.0</ele><time>2026-04-25T09:11:35.45Z</time></trkpt><trkpt lat="41.4219646" lon="2.1327869"><ele>287.0</ele><time>2026-04-25T09:11:44.473Z</time></trkpt><trkpt lat="41.4218857" lon="2.1327543"><ele>287.0</ele><time>2026-04-25T09:11:46.951Z</time></trkpt><trkpt lat="41.4218321" lon="2.1327026"><ele>287.0</ele><time>2026-04-25T09:11:50.435Z</time></trkpt><trkpt lat="41.4218186" lon="2.1326156"><ele>287.0</ele><time>2026-04-25T09:11:55.432Z</time></trkpt><trkpt lat="41.4217549" lon="2.1326066"><ele>287.0</ele><time>2026-04-25T09:12:02.34Z</time></trkpt><trkpt lat="41.4217656" lon="2.1325234"><ele>287.0</ele><time>2026-04-25T09:12:07.507Z</time></trkpt><trkpt lat="41.4217637" lon="2.132428"><ele>287.0</ele><time>2026-04-25T09:12:12.493Z</time></trkpt><trkpt lat="41.4217434" lon="2.1323295"><ele>287.0</ele><time>2026-04-25T09:12:16.366Z</time></trkpt><trkpt lat="41.4217522" lon="2.1322369"><ele>288.2857142857143</ele><time>2026-04-25T09:12:20.408Z</time></trkpt><trkpt lat="41.4217574" lon="2.1321487"><ele>289.57142857142856</ele><time>2026-04-25T09:12:24.452Z</time></trkpt><trkpt lat="41.4217233" lon="2.1320709"><ele>290.8571428571429</ele><time>2026-04-25T09:12:30.387Z</time></trkpt><trkpt lat="41.4216737" lon="2.1320094"><ele>292.1428571428571</ele><time>2026-04-25T09:12:37.382Z</time></trkpt><trkpt lat="41.4216027" lon="2.1319688"><ele>293.42857142857144</ele><time>2026-04-25T09:12:43.904Z</time></trkpt><trkpt lat="41.421555" lon="2.1320368"><ele>294.7142857142857</ele><time>2026-04-25T09:12:51.771Z</time></trkpt><trkpt lat="41.4215901" lon="2.1321075"><ele>296.0</ele><time>2026-04-25T09:12:57.454Z</time></trkpt><trkpt lat="41.421611" lon="2.132192"><ele>296.0</ele><time>2026-04-25T09:13:02.447Z</time></trkpt><trkpt lat="41.4215979" lon="2.132281"><ele>296.0</ele><time>2026-04-25T09:13:07.67Z</time></trkpt><trkpt lat="41.4215942" lon="2.1323717"><ele>296.0</ele><time>2026-04-25T09:13:13.088Z</time></trkpt><trkpt lat="41.4215675" lon="2.1324501"><ele>296.0</ele><time>2026-04-25T09:13:19.013Z</time></trkpt><trkpt lat="41.4215727" lon="2.1325344"><ele>296.0</ele><time>2026-04-25T09:13:22.536Z</time></trkpt><trkpt lat="41.4215802" lon="2.1326261"><ele>296.0</ele><time>2026-04-25T09:13:27.494Z</time></trkpt><trkpt lat="41.4215666" lon="2.1327137"><ele>296.0</ele><time>2026-04-25T09:13:33.424Z</time></trkpt><trkpt lat="41.4215697" lon="2.132804"><ele>296.0</ele><time>2026-04-25T09:13:40.367Z</time></trkpt><trkpt lat="41.4215098" lon="2.132771"><ele>296.0</ele><time>2026-04-25T09:13:48.45Z</time></trkpt><trkpt lat="41.4214922" lon="2.1326822"><ele>296.0</ele><time>2026-04-25T09:13:53.447Z</time></trkpt><trkpt lat="41.4215143" lon="2.1325908"><ele>296.0</ele><time>2026-04-25T09:13:59.387Z</time></trkpt><trkpt lat="41.4215225" lon="2.1324928"><ele>296.0</ele><time>2026-04-25T09:14:04.38Z</time></trkpt><trkpt lat="41.4215056" lon="2.1323828"><ele>296.0</ele><time>2026-04-25T09:14:14.372Z</time></trkpt><trkpt lat="41.4214732" lon="2.1322981"><ele>296.0</ele><time>2026-04-25T09:14:17.459Z</time></trkpt><trkpt lat="41.4214668" lon="2.1322073"><ele>296.0</ele><time>2026-04-25T09:14:22.452Z</time></trkpt><trkpt lat="41.4214481" lon="2.1320893"><ele>296.0</ele><time>2026-04-25T09:14:29.466Z</time></trkpt><trkpt lat="41.4214403" lon="2.1319875"><ele>296.0</ele><time>2026-04-25T09:14:32.452Z</time></trkpt><trkpt lat="41.4214766" lon="2.1318966"><ele>296.0</ele><time>2026-04-25T09:14:36.473Z</time></trkpt><trkpt lat="41.4214102" lon="2.1317957"><ele>296.0</ele><time>2026-04-25T09:14:43.374Z</time></trkpt><trkpt lat="41.4213896" lon="2.1316989"><ele>296.0</ele><time>2026-04-25T09:14:47.415Z</time></trkpt><trkpt lat="41.4214098" lon="2.1316187"><ele>296.8571428571429</ele><time>2026-04-25T09:14:54.427Z</time></trkpt><trkpt lat="41.4213739" lon="2.1314968"><ele>297.7142857142857</ele><time>2026-04-25T09:15:00.369Z</time></trkpt><trkpt lat="41.4213824" lon="2.1314071"><ele>298.57142857142856</ele><time>2026-04-25T09:15:04.41Z</time></trkpt><trkpt lat="41.4213297" lon="2.1313351"><ele>299.42857142857144</ele><time>2026-04-25T09:15:13.422Z</time></trkpt><trkpt lat="41.4212613" lon="2.1313176"><ele>300.2857142857143</ele><time>2026-04-25T09:15:17.462Z</time></trkpt><trkpt lat="41.4211987" lon="2.1313087"><ele>301.14285714285717</ele><time>2026-04-25T09:15:23.405Z</time></trkpt><trkpt lat="41.4211342" lon="2.1313251"><ele>302.0</ele><time>2026-04-25T09:15:28.447Z</time></trkpt><trkpt lat="41.4210874" lon="2.1314164"><ele>302.00000000000006</ele><time>2026-04-25T09:15:34.446Z</time></trkpt><trkpt lat="41.4210283" lon="2.1314559"><ele>302.0</ele><time>2026-04-25T09:15:37.417Z</time></trkpt><trkpt lat="41.4209611" lon="2.1314997"><ele>302.0</ele><time>2026-04-25T09:15:41.471Z</time></trkpt><trkpt lat="41.4209025" lon="2.131549"><ele>302.0</ele><time>2026-04-25T09:15:45.379Z</time></trkpt><trkpt lat="41.4208392" lon="2.1315956"><ele>302.0</ele><time>2026-04-25T09:15:50.433Z</time></trkpt><trkpt lat="41.4207797" lon="2.1316256"><ele>302.00000000000006</ele><time>2026-04-25T09:15:56.453Z</time></trkpt><trkpt lat="41.4207339" lon="2.1317096"><ele>302.0</ele><time>2026-04-25T09:16:01.421Z</time></trkpt><trkpt lat="41.4206669" lon="2.1317266"><ele>297.6666666666667</ele><time>2026-04-25T09:16:05.46Z</time></trkpt><trkpt lat="41.4205969" lon="2.1317238"><ele>293.33333333333337</ele><time>2026-04-25T09:16:10.451Z</time></trkpt><trkpt lat="41.4205201" lon="2.1318191"><ele>289.0</ele><time>2026-04-25T09:16:19.484Z</time></trkpt><trkpt lat="41.4204599" lon="2.1318704"><ele>284.6666666666667</ele><time>2026-04-25T09:16:22.446Z</time></trkpt><trkpt lat="41.4204039" lon="2.1319119"><ele>280.3333333333333</ele><time>2026-04-25T09:16:28.424Z</time></trkpt><trkpt lat="41.4203118" lon="2.1319332"><ele>276.0</ele><time>2026-04-25T09:16:34.405Z</time></trkpt><trkpt lat="41.4202236" lon="2.1319656"><ele>276.0</ele><time>2026-04-25T09:16:42.308Z</time></trkpt><trkpt lat="41.4201698" lon="2.1320432"><ele>276.0</ele><time>2026-04-25T09:16:44.289Z</time></trkpt><trkpt lat="41.420107" lon="2.132096"><ele>276.0</ele><time>2026-04-25T09:16:48.289Z</time></trkpt><trkpt lat="41.4200323" lon="2.132126"><ele>276.0</ele><time>2026-04-25T09:16:57.312Z</time></trkpt><trkpt lat="41.419968" lon="2.1321645"><ele>276.0</ele><time>2026-04-25T09:16:59.272Z</time></trkpt><trkpt lat="41.4198994" lon="2.1321515"><ele>276.0</ele><time>2026-04-25T09:17:05.209Z</time></trkpt><trkpt lat="41.4198661" lon="2.1320404"><ele>276.0</ele><time>2026-04-25T09:17:14.406Z</time></trkpt><trkpt lat="41.4198076" lon="2.131984"><ele>276.0</ele><time>2026-04-25T09:17:20.467Z</time></trkpt><trkpt lat="41.4197446" lon="2.1319906"><ele>276.0</ele><time>2026-04-25T09:17:30.333Z</time></trkpt><trkpt lat="41.4197384" lon="2.1318537"><ele>276.0</ele><time>2026-04-25T09:17:31.334Z</time></trkpt><trkpt lat="41.4197121" lon="2.1317645"><ele>276.0</ele><time>2026-04-25T09:17:37.386Z</time></trkpt><trkpt lat="41.419695" lon="2.1316832"><ele>276.0</ele><time>2026-04-25T09:17:41.428Z</time></trkpt><trkpt lat="41.4197081" lon="2.1315855"><ele>276.0</ele><time>2026-04-25T09:17:46.471Z</time></trkpt><trkpt lat="41.4196653" lon="2.1315198"><ele>274.0</ele><time>2026-04-25T09:17:50.448Z</time></trkpt><trkpt lat="41.4196125" lon="2.1314382"><ele>272.0</ele><time>2026-04-25T09:17:54.48Z</time></trkpt><trkpt lat="41.4195812" lon="2.1313456"><ele>270.0</ele><time>2026-04-25T09:17:58.403Z</time></trkpt><trkpt lat="41.4195195" lon="2.1313018"><ele>268.0</ele><time>2026-04-25T09:18:02.465Z</time></trkpt><trkpt lat="41.4194769" lon="2.1312199"><ele>266.0</ele><time>2026-04-25T09:18:06.397Z</time></trkpt><trkpt lat="41.4194299" lon="2.1311396"><ele>264.0</ele><time>2026-04-25T09:18:12.45Z</time></trkpt><trkpt lat="41.4194283" lon="2.1310529"><ele>262.0</ele><time>2026-04-25T09:18:17.444Z</time></trkpt><trkpt lat="41.4193896" lon="2.1309859"><ele>262.0</ele><time>2026-04-25T09:18:23.292Z</time></trkpt><trkpt lat="41.4194645" lon="2.1309963"><ele>262.0</ele><time>2026-04-25T09:18:30.366Z</time></trkpt><trkpt lat="41.4195005" lon="2.130903"><ele>262.0</ele><time>2026-04-25T09:18:34.429Z</time></trkpt><trkpt lat="41.4195627" lon="2.1309189"><ele>262.0</ele><time>2026-04-25T09:18:40.366Z</time></trkpt><trkpt lat="41.4196092" lon="2.1308399"><ele>262.0</ele><time>2026-04-25T09:18:42.424Z</time></trkpt><trkpt lat="41.4196859" lon="2.1308549"><ele>262.0</ele><time>2026-04-25T09:19:11.448Z</time></trkpt><trkpt lat="41.4197678" lon="2.1308417"><ele>264.57142857142856</ele><time>2026-04-25T09:19:15.907Z</time></trkpt><trkpt lat="41.4198311" lon="2.1308302"><ele>267.14285714285717</ele><time>2026-04-25T09:19:19.044Z</time></trkpt><trkpt lat="41.4198919" lon="2.1307752"><ele>269.7142857142857</ele><time>2026-04-25T09:19:23.503Z</time></trkpt><trkpt lat="41.4199503" lon="2.1307099"><ele>272.2857142857143</ele><time>2026-04-25T09:19:27.749Z</time></trkpt><trkpt lat="41.419964" lon="2.1306276"><ele>274.8571428571429</ele><time>2026-04-25T09:19:30.614Z</time></trkpt><trkpt lat="41.4199771" lon="2.1305185"><ele>277.42857142857144</ele><time>2026-04-25T09:19:34.683Z</time></trkpt><trkpt lat="41.4200195" lon="2.1304216"><ele>280.0</ele><time>2026-04-25T09:19:38.405Z</time></trkpt><trkpt lat="41.4200447" lon="2.1303407"><ele>280.0</ele><time>2026-04-25T09:19:43.366Z</time></trkpt><trkpt lat="41.4200593" lon="2.1302451"><ele>280.0</ele><time>2026-04-25T09:19:48.481Z</time></trkpt><trkpt lat="41.4200593" lon="2.1301478"><ele>280.0</ele><time>2026-04-25T09:19:52.85Z</time></trkpt><trkpt lat="41.420058" lon="2.1300578"><ele>280.0</ele><time>2026-04-25T09:19:55.972Z</time></trkpt><trkpt lat="41.4200427" lon="2.1299723"><ele>280.0</ele><time>2026-04-25T09:20:00.092Z</time></trkpt><trkpt lat="41.4200061" lon="2.1298879"><ele>280.0</ele><time>2026-04-25T09:20:06.308Z</time></trkpt><trkpt lat="41.4199268" lon="2.1298653"><ele>280.0</ele><time>2026-04-25T09:20:15.286Z</time></trkpt><trkpt lat="41.4198585" lon="2.1298494"><ele>281.14285714285717</ele><time>2026-04-25T09:20:18.332Z</time></trkpt><trkpt lat="41.4197647" lon="2.1297819"><ele>282.2857142857143</ele><time>2026-04-25T09:20:26.487Z</time></trkpt><trkpt lat="41.4197163" lon="2.1297264"><ele>283.42857142857144</ele><time>2026-04-25T09:20:30.381Z</time></trkpt><trkpt lat="41.419649" lon="2.1296946"><ele>284.57142857142856</ele><time>2026-04-25T09:20:35.376Z</time></trkpt><trkpt lat="41.4195832" lon="2.1296929"><ele>285.7142857142857</ele><time>2026-04-25T09:20:39.41Z</time></trkpt><trkpt lat="41.4195335" lon="2.1296288"><ele>286.8571428571429</ele><time>2026-04-25T09:20:44.395Z</time></trkpt><trkpt lat="41.4195029" lon="2.1295517"><ele>288.0</ele><time>2026-04-25T09:20:47.368Z</time></trkpt><trkpt lat="41.4194794" lon="2.1294584"><ele>288.0</ele><time>2026-04-25T09:20:52.483Z</time></trkpt><trkpt lat="41.4195119" lon="2.1293859"><ele>288.0</ele><time>2026-04-25T09:20:56.418Z</time></trkpt><trkpt lat="41.4195761" lon="2.129341"><ele>288.0</ele><time>2026-04-25T09:21:01.248Z</time></trkpt><trkpt lat="41.4196001" lon="2.129255"><ele>288.0</ele><time>2026-04-25T09:21:05.33Z</time></trkpt><trkpt lat="41.419646" lon="2.1291107"><ele>288.0</ele><time>2026-04-25T09:21:21.388Z</time></trkpt><trkpt lat="41.4197127" lon="2.1290768"><ele>288.0</ele><time>2026-04-25T09:21:25.494Z</time></trkpt><trkpt lat="41.4197746" lon="2.129055"><ele>289.14285714285717</ele><time>2026-04-25T09:21:32.439Z</time></trkpt><trkpt lat="41.4198441" lon="2.1290225"><ele>290.2857142857143</ele><time>2026-04-25T09:21:38.387Z</time></trkpt><trkpt lat="41.4198716" lon="2.1289399"><ele>291.42857142857144</ele><time>2026-04-25T09:21:42.432Z</time></trkpt><trkpt lat="41.4198948" lon="2.1288604"><ele>292.57142857142856</ele><time>2026-04-25T09:21:46.477Z</time></trkpt><trkpt lat="41.4198322" lon="2.1288146"><ele>293.7142857142857</ele><time>2026-04-25T09:21:53.566Z</time></trkpt><trkpt lat="41.4198216" lon="2.1287226"><ele>294.8571428571429</ele><time>2026-04-25T09:21:56.392Z</time></trkpt><trkpt lat="41.4198009" lon="2.12863"><ele>296.0</ele><time>2026-04-25T09:22:00.669Z</time></trkpt><trkpt lat="41.4197556" lon="2.1285298"><ele>296.0</ele><time>2026-04-25T09:22:04.816Z</time></trkpt><trkpt lat="41.4196967" lon="2.1284564"><ele>296.0</ele><time>2026-04-25T09:22:09.48Z</time></trkpt><trkpt lat="41.4196873" lon="2.1283665"><ele>296.0</ele><time>2026-04-25T09:22:12.455Z</time></trkpt><trkpt lat="41.419698" lon="2.1282831"><ele>296.0</ele><time>2026-04-25T09:22:15.429Z</time></trkpt><trkpt lat="41.4197353" lon="2.1281935"><ele>296.0</ele><time>2026-04-25T09:22:19.475Z</time></trkpt><trkpt lat="41.4197743" lon="2.1281208"><ele>296.0</ele><time>2026-04-25T09:22:24.472Z</time></trkpt><trkpt lat="41.4197706" lon="2.1280291"><ele>296.0</ele><time>2026-04-25T09:22:31.49Z</time></trkpt><trkpt lat="41.4197596" lon="2.1279268"><ele>295.2857142857143</ele><time>2026-04-25T09:22:37.434Z</time></trkpt><trkpt lat="41.4196607" lon="2.1279078"><ele>294.57142857142856</ele><time>2026-04-25T09:22:39.46Z</time></trkpt><trkpt lat="41.4196069" lon="2.1278544"><ele>293.85714285714283</ele><time>2026-04-25T09:22:42.434Z</time></trkpt><trkpt lat="41.4195472" lon="2.1277868"><ele>293.1428571428571</ele><time>2026-04-25T09:22:47.869Z</time></trkpt><trkpt lat="41.4194991" lon="2.1277242"><ele>292.4285714285714</ele><time>2026-04-25T09:22:52.033Z</time></trkpt><trkpt lat="41.4194944" lon="2.1276301"><ele>291.7142857142857</ele><time>2026-04-25T09:22:58.492Z</time></trkpt><trkpt lat="41.4194719" lon="2.127549"><ele>291.0</ele><time>2026-04-25T09:23:07.414Z</time></trkpt><trkpt lat="41.4193702" lon="2.1275509"><ele>291.0</ele><time>2026-04-25T09:23:10.548Z</time></trkpt><trkpt lat="41.419304" lon="2.1275375"><ele>291.0</ele><time>2026-04-25T09:23:13.59Z</time></trkpt><trkpt lat="41.4192406" lon="2.1275741"><ele>291.0</ele><time>2026-04-25T09:23:22.51Z</time></trkpt><trkpt lat="41.4191892" lon="2.1276468"><ele>291.0</ele><time>2026-04-25T09:23:27.386Z</time></trkpt><trkpt lat="41.4191323" lon="2.1277146"><ele>291.0</ele><time>2026-04-25T09:23:31.653Z</time></trkpt><trkpt lat="41.4191038" lon="2.1277982"><ele>291.0</ele><time>2026-04-25T09:23:35.765Z</time></trkpt><trkpt lat="41.4190703" lon="2.127882"><ele>291.0</ele><time>2026-04-25T09:23:39.949Z</time></trkpt><trkpt lat="41.4190318" lon="2.1279673"><ele>291.0</ele><time>2026-04-25T09:23:45.004Z</time></trkpt><trkpt lat="41.4189733" lon="2.1280254"><ele>291.0</ele><time>2026-04-25T09:23:50.286Z</time></trkpt><trkpt lat="41.4189135" lon="2.1280779"><ele>291.0</ele><time>2026-04-25T09:23:55.456Z</time></trkpt><trkpt lat="41.4188697" lon="2.1281459"><ele>291.0</ele><time>2026-04-25T09:24:01.402Z</time></trkpt><trkpt lat="41.4188176" lon="2.1281966"><ele>291.0</ele><time>2026-04-25T09:24:09.488Z</time></trkpt><trkpt lat="41.4188733" lon="2.1281569"><ele>291.0</ele><time>2026-04-25T09:24:34.456Z</time></trkpt><trkpt lat="41.4187978" lon="2.1282065"><ele>291.0</ele><time>2026-04-25T09:24:56.385Z</time></trkpt><trkpt lat="41.4187334" lon="2.1282222"><ele>292.7142857142857</ele><time>2026-04-25T09:25:00.181Z</time></trkpt><trkpt lat="41.418674" lon="2.1281827"><ele>294.4285714285714</ele><time>2026-04-25T09:25:06.437Z</time></trkpt><trkpt lat="41.4186258" lon="2.128122"><ele>296.1428571428571</ele><time>2026-04-25T09:25:14.402Z</time></trkpt><trkpt lat="41.4185687" lon="2.1280578"><ele>297.85714285714283</ele><time>2026-04-25T09:25:21.88Z</time></trkpt><trkpt lat="41.4185095" lon="2.1280005"><ele>299.57142857142856</ele><time>2026-04-25T09:25:27.48Z</time></trkpt><trkpt lat="41.418451" lon="2.1279521"><ele>301.2857142857143</ele><time>2026-04-25T09:25:32.472Z</time></trkpt><trkpt lat="41.4183923" lon="2.1279158"><ele>303.0</ele><time>2026-04-25T09:25:38.498Z</time></trkpt><trkpt lat="41.4183234" lon="2.1279178"><ele>303.0</ele><time>2026-04-25T09:25:42.448Z</time></trkpt><trkpt lat="41.4182707" lon="2.1279687"><ele>303.0</ele><time>2026-04-25T09:25:47.429Z</time></trkpt><trkpt lat="41.4182247" lon="2.1280299"><ele>303.0</ele><time>2026-04-25T09:25:51.47Z</time></trkpt><trkpt lat="41.4181798" lon="2.1281113"><ele>303.0</ele><time>2026-04-25T09:25:56.462Z</time></trkpt><trkpt lat="41.4181454" lon="2.1281887"><ele>303.0</ele><time>2026-04-25T09:26:01.455Z</time></trkpt><trkpt lat="41.4181031" lon="2.1282581"><ele>303.0</ele><time>2026-04-25T09:26:05.496Z</time></trkpt><trkpt lat="41.4180665" lon="2.128334"><ele>303.0</ele><time>2026-04-25T09:26:09.421Z</time></trkpt><trkpt lat="41.4180256" lon="2.1283984"><ele>301.7142857142857</ele><time>2026-04-25T09:26:13.462Z</time></trkpt><trkpt lat="41.4179751" lon="2.1284515"><ele>300.42857142857144</ele><time>2026-04-25T09:26:17.386Z</time></trkpt><trkpt lat="41.4179107" lon="2.1284968"><ele>299.1428571428571</ele><time>2026-04-25T09:26:23.45Z</time></trkpt><trkpt lat="41.4178591" lon="2.128555"><ele>297.8571428571429</ele><time>2026-04-25T09:26:28.443Z</time></trkpt><trkpt lat="41.4177975" lon="2.1286132"><ele>296.57142857142856</ele><time>2026-04-25T09:26:33.397Z</time></trkpt><trkpt lat="41.4177448" lon="2.1286606"><ele>295.2857142857143</ele><time>2026-04-25T09:26:39.377Z</time></trkpt><trkpt lat="41.4176857" lon="2.1287179"><ele>294.0</ele><time>2026-04-25T09:26:44.368Z</time></trkpt><trkpt lat="41.4176309" lon="2.1287596"><ele>294.0</ele><time>2026-04-25T09:26:49.366Z</time></trkpt><trkpt lat="41.4175773" lon="2.1288076"><ele>294.0</ele><time>2026-04-25T09:26:54.47Z</time></trkpt><trkpt lat="41.4175133" lon="2.128857"><ele>294.0</ele><time>2026-04-25T09:26:59.46Z</time></trkpt><trkpt lat="41.4174542" lon="2.1288889"><ele>294.0</ele><time>2026-04-25T09:27:04.451Z</time></trkpt><trkpt lat="41.417397" lon="2.1288491"><ele>294.0</ele><time>2026-04-25T09:27:11.452Z</time></trkpt><trkpt lat="41.4173131" lon="2.1288244"><ele>294.0</ele><time>2026-04-25T09:27:18.472Z</time></trkpt><trkpt lat="41.4172516" lon="2.1288601"><ele>294.0</ele><time>2026-04-25T09:27:20.492Z</time></trkpt><trkpt lat="41.4171884" lon="2.1288351"><ele>290.7142857142857</ele><time>2026-04-25T09:27:23.452Z</time></trkpt><trkpt lat="41.417119" lon="2.1287771"><ele>287.42857142857144</ele><time>2026-04-25T09:27:29.236Z</time></trkpt><trkpt lat="41.4170888" lon="2.1287033"><ele>284.1428571428571</ele><time>2026-04-25T09:27:33.432Z</time></trkpt><trkpt lat="41.4170514" lon="2.1286283"><ele>280.8571428571429</ele><time>2026-04-25T09:27:38.421Z</time></trkpt><trkpt lat="41.417002" lon="2.1285754"><ele>277.57142857142856</ele><time>2026-04-25T09:27:43.53Z</time></trkpt><trkpt lat="41.41694" lon="2.1285191"><ele>274.2857142857143</ele><time>2026-04-25T09:27:48.355Z</time></trkpt><trkpt lat="41.4168751" lon="2.1285213"><ele>271.0</ele><time>2026-04-25T09:27:52.441Z</time></trkpt><trkpt lat="41.4167973" lon="2.1284911"><ele>271.0</ele><time>2026-04-25T09:27:56.481Z</time></trkpt><trkpt lat="41.4167652" lon="2.1283692"><ele>271.0</ele><time>2026-04-25T09:27:59.451Z</time></trkpt><trkpt lat="41.416736" lon="2.1282862"><ele>271.0</ele><time>2026-04-25T09:28:03.492Z</time></trkpt><trkpt lat="41.4167328" lon="2.1281922"><ele>271.0</ele><time>2026-04-25T09:28:10.382Z</time></trkpt><trkpt lat="41.4167251" lon="2.1281081"><ele>271.0</ele><time>2026-04-25T09:28:14.423Z</time></trkpt><trkpt lat="41.416744" lon="2.128016"><ele>271.0</ele><time>2026-04-25T09:28:20.368Z</time></trkpt><trkpt lat="41.4167862" lon="2.1279433"><ele>271.0</ele><time>2026-04-25T09:28:25.472Z</time></trkpt><trkpt lat="41.4168317" lon="2.1278745"><ele>272.0</ele><time>2026-04-25T09:28:30.462Z</time></trkpt><trkpt lat="41.4168379" lon="2.1277812"><ele>273.0</ele><time>2026-04-25T09:28:34.502Z</time></trkpt><trkpt lat="41.4168245" lon="2.1276826"><ele>274.0</ele><time>2026-04-25T09:28:41.393Z</time></trkpt><trkpt lat="41.4168469" lon="2.1275948"><ele>275.0</ele><time>2026-04-25T09:28:46.385Z</time></trkpt><trkpt lat="41.4168861" lon="2.127522"><ele>276.0</ele><time>2026-04-25T09:28:51.375Z</time></trkpt><trkpt lat="41.4169044" lon="2.1274354"><ele>277.0</ele><time>2026-04-25T09:28:55.414Z</time></trkpt><trkpt lat="41.4169284" lon="2.1273565"><ele>278.0</ele><time>2026-04-25T09:29:00.377Z</time></trkpt><trkpt lat="41.4169466" lon="2.1272574"><ele>278.42857142857144</ele><time>2026-04-25T09:29:05.395Z</time></trkpt><trkpt lat="41.4169639" lon="2.1271722"><ele>278.8571428571429</ele><time>2026-04-25T09:29:11.455Z</time></trkpt><trkpt lat="41.4169797" lon="2.1270839"><ele>279.28571428571433</ele><time>2026-04-25T09:29:23.455Z</time></trkpt><trkpt lat="41.4170295" lon="2.1270241"><ele>279.7142857142857</ele><time>2026-04-25T09:29:28.564Z</time></trkpt><trkpt lat="41.4170514" lon="2.1269435"><ele>280.14285714285717</ele><time>2026-04-25T09:29:34.388Z</time></trkpt><trkpt lat="41.4170569" lon="2.1268577"><ele>280.5714285714286</ele><time>2026-04-25T09:29:40.447Z</time></trkpt><trkpt lat="41.4170462" lon="2.1267313"><ele>281.0</ele><time>2026-04-25T09:30:02.432Z</time></trkpt><trkpt lat="41.4170425" lon="2.126638"><ele>285.42857142857144</ele><time>2026-04-25T09:30:07.424Z</time></trkpt><trkpt lat="41.4170264" lon="2.1265491"><ele>289.8571428571429</ele><time>2026-04-25T09:30:12.028Z</time></trkpt><trkpt lat="41.4170216" lon="2.1264457"><ele>294.28571428571433</ele><time>2026-04-25T09:30:16.459Z</time></trkpt><trkpt lat="41.4170219" lon="2.1263584"><ele>298.7142857142857</ele><time>2026-04-25T09:30:20.482Z</time></trkpt><trkpt lat="41.4169973" lon="2.1262652"><ele>303.1428571428571</ele><time>2026-04-25T09:30:25.08Z</time></trkpt><trkpt lat="41.416943" lon="2.1262142"><ele>307.5714285714286</ele><time>2026-04-25T09:30:29.415Z</time></trkpt><trkpt lat="41.4168768" lon="2.1261661"><ele>312.0</ele><time>2026-04-25T09:30:35.477Z</time></trkpt><trkpt lat="41.4168155" lon="2.1261312"><ele>312.0</ele><time>2026-04-25T09:30:41.537Z</time></trkpt><trkpt lat="41.4167423" lon="2.1261146"><ele>312.0</ele><time>2026-04-25T09:30:46.401Z</time></trkpt><trkpt lat="41.416678" lon="2.1260765"><ele>312.0</ele><time>2026-04-25T09:30:51.401Z</time></trkpt><trkpt lat="41.4166249" lon="2.126025"><ele>312.0</ele><time>2026-04-25T09:30:55.442Z</time></trkpt><trkpt lat="41.4165725" lon="2.1259753"><ele>312.0</ele><time>2026-04-25T09:31:00.434Z</time></trkpt><trkpt lat="41.4165032" lon="2.1259443"><ele>312.0</ele><time>2026-04-25T09:31:07.434Z</time></trkpt><trkpt lat="41.4164455" lon="2.1258986"><ele>312.0</ele><time>2026-04-25T09:31:12.421Z</time></trkpt><trkpt lat="41.416383" lon="2.1258866"><ele>312.0</ele><time>2026-04-25T09:31:16.468Z</time></trkpt><trkpt lat="41.4163342" lon="2.1258314"><ele>312.0</ele><time>2026-04-25T09:31:20.442Z</time></trkpt><trkpt lat="41.4163039" lon="2.1257384"><ele>312.0</ele><time>2026-04-25T09:31:25.391Z</time></trkpt><trkpt lat="41.4162627" lon="2.1256612"><ele>312.0</ele><time>2026-04-25T09:31:31.453Z</time></trkpt><trkpt lat="41.4162513" lon="2.1255753"><ele>312.0</ele><time>2026-04-25T09:31:36.446Z</time></trkpt><trkpt lat="41.4162353" lon="2.1254838"><ele>312.0</ele><time>2026-04-25T09:31:42.389Z</time></trkpt><trkpt lat="41.4162185" lon="2.1254025"><ele>312.0</ele><time>2026-04-25T09:31:46.431Z</time></trkpt><trkpt lat="41.4161984" lon="2.1253163"><ele>312.5714285714286</ele><time>2026-04-25T09:31:51.423Z</time></trkpt><trkpt lat="41.416157" lon="2.1252334"><ele>313.1428571428571</ele><time>2026-04-25T09:31:57.486Z</time></trkpt><trkpt lat="41.4161298" lon="2.1251566"><ele>313.7142857142857</ele><time>2026-04-25T09:32:01.409Z</time></trkpt><trkpt lat="41.4161243" lon="2.1250555"><ele>314.28571428571433</ele><time>2026-04-25T09:32:07.472Z</time></trkpt><trkpt lat="41.4160989" lon="2.124964"><ele>314.8571428571429</ele><time>2026-04-25T09:32:13.44Z</time></trkpt><trkpt lat="41.416062" lon="2.1248735"><ele>315.42857142857144</ele><time>2026-04-25T09:32:19.478Z</time></trkpt><trkpt lat="41.4160211" lon="2.1247939"><ele>316.0</ele><time>2026-04-25T09:32:25.423Z</time></trkpt><trkpt lat="41.4159905" lon="2.1246959"><ele>316.00000000000006</ele><time>2026-04-25T09:32:31.367Z</time></trkpt><trkpt lat="41.416003" lon="2.1245939"><ele>316.0</ele><time>2026-04-25T09:32:36.478Z</time></trkpt><trkpt lat="41.4160436" lon="2.1245145"><ele>316.0</ele><time>2026-04-25T09:32:42.422Z</time></trkpt><trkpt lat="41.4161163" lon="2.124519"><ele>316.0</ele><time>2026-04-25T09:32:48.496Z</time></trkpt><trkpt lat="41.4161828" lon="2.1245454"><ele>316.0</ele><time>2026-04-25T09:32:52.415Z</time></trkpt><trkpt lat="41.4162523" lon="2.1245921"><ele>316.00000000000006</ele><time>2026-04-25T09:32:58.501Z</time></trkpt><trkpt lat="41.416305" lon="2.1246408"><ele>316.0</ele><time>2026-04-25T09:33:02.418Z</time></trkpt><trkpt lat="41.4163365" lon="2.1247211"><ele>319.5714285714286</ele><time>2026-04-25T09:33:09.433Z</time></trkpt><trkpt lat="41.4163988" lon="2.1247039"><ele>323.14285714285717</ele><time>2026-04-25T09:33:13.474Z</time></trkpt><trkpt lat="41.4164673" lon="2.1246961"><ele>326.7142857142857</ele><time>2026-04-25T09:33:17.418Z</time></trkpt><trkpt lat="41.4165264" lon="2.1246292"><ele>330.28571428571433</ele><time>2026-04-25T09:33:21.46Z</time></trkpt><trkpt lat="41.4165877" lon="2.1245729"><ele>333.8571428571429</ele><time>2026-04-25T09:33:26.455Z</time></trkpt><trkpt lat="41.4166576" lon="2.1245625"><ele>337.42857142857144</ele><time>2026-04-25T09:33:31.448Z</time></trkpt><trkpt lat="41.4167058" lon="2.124482"><ele>341.0</ele><time>2026-04-25T09:33:37.646Z</time></trkpt><trkpt lat="41.4167235" lon="2.1243818"><ele>341.0</ele><time>2026-04-25T09:33:43.458Z</time></trkpt><trkpt lat="41.416721" lon="2.1242903"><ele>341.0</ele><time>2026-04-25T09:33:47.38Z</time></trkpt><trkpt lat="41.4166917" lon="2.1241989"><ele>341.0</ele><time>2026-04-25T09:33:52.372Z</time></trkpt><trkpt lat="41.4166759" lon="2.1241086"><ele>341.0</ele><time>2026-04-25T09:33:56.414Z</time></trkpt><trkpt lat="41.4166564" lon="2.1240172"><ele>341.0</ele><time>2026-04-25T09:34:02.502Z</time></trkpt><trkpt lat="41.4165987" lon="2.123959"><ele>341.0</ele><time>2026-04-25T09:34:07.469Z</time></trkpt><trkpt lat="41.4165549" lon="2.1238771"><ele>341.0</ele><time>2026-04-25T09:34:11.392Z</time></trkpt><trkpt lat="41.4165483" lon="2.1237727"><ele>340.2857142857143</ele><time>2026-04-25T09:34:18.396Z</time></trkpt><trkpt lat="41.4165424" lon="2.1236869"><ele>339.57142857142856</ele><time>2026-04-25T09:34:22.381Z</time></trkpt><trkpt lat="41.4165478" lon="2.1235881"><ele>338.8571428571429</ele><time>2026-04-25T09:34:26.478Z</time></trkpt><trkpt lat="41.4165506" lon="2.1234985"><ele>338.1428571428571</ele><time>2026-04-25T09:34:31.345Z</time></trkpt><trkpt lat="41.4165695" lon="2.1234022"><ele>337.42857142857144</ele><time>2026-04-25T09:34:36.439Z</time></trkpt><trkpt lat="41.4165944" lon="2.1233242"><ele>336.7142857142857</ele><time>2026-04-25T09:34:41.454Z</time></trkpt><trkpt lat="41.4166403" lon="2.1232552"><ele>336.0</ele><time>2026-04-25T09:34:47.401Z</time></trkpt><trkpt lat="41.4166684" lon="2.1231685"><ele>332.14285714285717</ele><time>2026-04-25T09:34:53.264Z</time></trkpt><trkpt lat="41.4167236" lon="2.123109"><ele>328.2857142857143</ele><time>2026-04-25T09:35:00.471Z</time></trkpt><trkpt lat="41.4167902" lon="2.1230875"><ele>324.42857142857144</ele><time>2026-04-25T09:35:07.483Z</time></trkpt><trkpt lat="41.4168617" lon="2.1230118"><ele>320.57142857142856</ele><time>2026-04-25T09:35:28.512Z</time></trkpt><trkpt lat="41.4169266" lon="2.1229662"><ele>316.7142857142857</ele><time>2026-04-25T09:35:32.338Z</time></trkpt><trkpt lat="41.4170006" lon="2.122961"><ele>312.8571428571429</ele><time>2026-04-25T09:35:37.427Z</time></trkpt><trkpt lat="41.4170663" lon="2.1229284"><ele>309.0</ele><time>2026-04-25T09:35:43.382Z</time></trkpt><trkpt lat="41.4171283" lon="2.1229031"><ele>312.5714285714286</ele><time>2026-04-25T09:35:48.366Z</time></trkpt><trkpt lat="41.4171982" lon="2.1228809"><ele>316.14285714285717</ele><time>2026-04-25T09:35:53.474Z</time></trkpt><trkpt lat="41.4172649" lon="2.1228845"><ele>319.7142857142857</ele><time>2026-04-25T09:35:58.466Z</time></trkpt><trkpt lat="41.4173358" lon="2.1228468"><ele>323.28571428571433</ele><time>2026-04-25T09:36:03.458Z</time></trkpt><trkpt lat="41.4172972" lon="2.1229164"><ele>326.8571428571429</ele><time>2026-04-25T09:36:13.432Z</time></trkpt><trkpt lat="41.4173019" lon="2.1230066"><ele>330.42857142857144</ele><time>2026-04-25T09:36:25.552Z</time></trkpt><trkpt lat="41.4173686" lon="2.1230333"><ele>334.0</ele><time>2026-04-25T09:37:19.382Z</time></trkpt><trkpt lat="41.4174284" lon="2.123068"><ele>334.0</ele><time>2026-04-25T09:37:26.394Z</time></trkpt><trkpt lat="41.4175101" lon="2.1230979"><ele>334.0</ele><time>2026-04-25T09:37:30.425Z</time></trkpt><trkpt lat="41.4175642" lon="2.1231757"><ele>334.0</ele><time>2026-04-25T09:37:34.445Z</time></trkpt><trkpt lat="41.4176209" lon="2.1232139"><ele>334.0</ele><time>2026-04-25T09:37:40.387Z</time></trkpt><trkpt lat="41.4176939" lon="2.1231199"><ele>334.0</ele><time>2026-04-25T09:37:43.476Z</time></trkpt><trkpt lat="41.4177574" lon="2.123098"><ele>334.0</ele><time>2026-04-25T09:37:47.397Z</time></trkpt><trkpt lat="41.4178173" lon="2.1230623"><ele>334.0</ele><time>2026-04-25T09:37:54.397Z</time></trkpt><trkpt lat="41.4178609" lon="2.1229842"><ele>334.0</ele><time>2026-04-25T09:37:59.506Z</time></trkpt><trkpt lat="41.4179073" lon="2.1228872"><ele>334.0</ele><time>2026-04-25T09:38:04.546Z</time></trkpt><trkpt lat="41.4179345" lon="2.1228082"><ele>334.0</ele><time>2026-04-25T09:38:08.415Z</time></trkpt><trkpt lat="41.4179549" lon="2.1227178"><ele>334.0</ele><time>2026-04-25T09:38:14.367Z</time></trkpt><trkpt lat="41.4179707" lon="2.1226319"><ele>334.0</ele><time>2026-04-25T09:38:19.435Z</time></trkpt><trkpt lat="41.4179566" lon="2.1225286"><ele>334.0</ele><time>2026-04-25T09:38:25.402Z</time></trkpt><trkpt lat="41.417971" lon="2.1224264"><ele>332.1428571428571</ele><time>2026-04-25T09:38:30.391Z</time></trkpt><trkpt lat="41.4179817" lon="2.1223285"><ele>330.2857142857143</ele><time>2026-04-25T09:38:35.38Z</time></trkpt><trkpt lat="41.4180013" lon="2.1222333"><ele>328.42857142857144</ele><time>2026-04-25T09:38:40.37Z</time></trkpt><trkpt lat="41.4180187" lon="2.1221323"><ele>326.57142857142856</ele><time>2026-04-25T09:38:45.46Z</time></trkpt><trkpt lat="41.4180303" lon="2.1220435"><ele>324.7142857142857</ele><time>2026-04-25T09:38:49.4Z</time></trkpt><trkpt lat="41.4180336" lon="2.1219516"><ele>322.85714285714283</ele><time>2026-04-25T09:38:55.439Z</time></trkpt><trkpt lat="41.4180643" lon="2.1218778"><ele>321.0</ele><time>2026-04-25T09:39:01.44Z</time></trkpt><trkpt lat="41.4181357" lon="2.1218454"><ele>325.99999999999994</ele><time>2026-04-25T09:39:08.388Z</time></trkpt><trkpt lat="41.4181979" lon="2.1217933"><ele>331.0</ele><time>2026-04-25T09:39:13.378Z</time></trkpt><trkpt lat="41.4182594" lon="2.1217641"><ele>336.0</ele><time>2026-04-25T09:39:20.39Z</time></trkpt><trkpt lat="41.4183257" lon="2.1217421"><ele>341.0</ele><time>2026-04-25T09:39:25.371Z</time></trkpt><trkpt lat="41.4183906" lon="2.1217379"><ele>346.0</ele><time>2026-04-25T09:39:30.367Z</time></trkpt><trkpt lat="41.4184539" lon="2.1217348"><ele>350.99999999999994</ele><time>2026-04-25T09:39:36.396Z</time></trkpt><trkpt lat="41.4185189" lon="2.1217382"><ele>356.0</ele><time>2026-04-25T09:39:41.413Z</time></trkpt><trkpt lat="41.4185914" lon="2.1217424"><ele>355.99999999999994</ele><time>2026-04-25T09:39:47.436Z</time></trkpt><trkpt lat="41.4186557" lon="2.121783"><ele>356.0</ele><time>2026-04-25T09:39:51.785Z</time></trkpt><trkpt lat="41.4187282" lon="2.1217887"><ele>356.0</ele><time>2026-04-25T09:39:57.22Z</time></trkpt><trkpt lat="41.4187859" lon="2.1217325"><ele>356.0</ele><time>2026-04-25T09:40:02.448Z</time></trkpt><trkpt lat="41.4188345" lon="2.1216595"><ele>356.0</ele><time>2026-04-25T09:40:09.46Z</time></trkpt><trkpt lat="41.4188737" lon="2.1215823"><ele>355.99999999999994</ele><time>2026-04-25T09:40:13.382Z</time></trkpt><trkpt lat="41.4189221" lon="2.121526"><ele>356.0</ele><time>2026-04-25T09:40:17.423Z</time></trkpt><trkpt lat="41.4189673" lon="2.1214424"><ele>360.2857142857143</ele><time>2026-04-25T09:40:22.415Z</time></trkpt><trkpt lat="41.4190075" lon="2.1213741"><ele>364.57142857142856</ele><time>2026-04-25T09:40:27.407Z</time></trkpt><trkpt lat="41.4190284" lon="2.1212881"><ele>368.8571428571429</ele><time>2026-04-25T09:40:32.399Z</time></trkpt><trkpt lat="41.4190517" lon="2.1211896"><ele>373.1428571428571</ele><time>2026-04-25T09:40:37.39Z</time></trkpt><trkpt lat="41.4190607" lon="2.1211007"><ele>377.42857142857144</ele><time>2026-04-25T09:40:41.432Z</time></trkpt><trkpt lat="41.4190445" lon="2.1210182"><ele>381.7142857142857</ele><time>2026-04-25T09:40:47.374Z</time></trkpt><trkpt lat="41.4190122" lon="2.1209348"><ele>386.0</ele><time>2026-04-25T09:40:53.435Z</time></trkpt><trkpt lat="41.418948" lon="2.1209434"><ele>386.00000000000006</ele><time>2026-04-25T09:40:58.972Z</time></trkpt><trkpt lat="41.4188982" lon="2.1208673"><ele>386.0</ele><time>2026-04-25T09:41:03.398Z</time></trkpt><trkpt lat="41.4188397" lon="2.120802"><ele>386.0</ele><time>2026-04-25T09:41:08.381Z</time></trkpt><trkpt lat="41.4187798" lon="2.1207489"><ele>386.0</ele><time>2026-04-25T09:41:14.441Z</time></trkpt><trkpt lat="41.4187134" lon="2.120761"><ele>386.0</ele><time>2026-04-25T09:41:19.433Z</time></trkpt><trkpt lat="41.4186473" lon="2.1207342"><ele>386.00000000000006</ele><time>2026-04-25T09:41:24.424Z</time></trkpt><trkpt lat="41.4186038" lon="2.1206691"><ele>386.0</ele><time>2026-04-25T09:41:28.464Z</time></trkpt><trkpt lat="41.41857" lon="2.1205863"><ele>385.16666666666663</ele><time>2026-04-25T09:41:32.464Z</time></trkpt><trkpt lat="41.4185199" lon="2.1205172"><ele>384.3333333333333</ele><time>2026-04-25T09:41:37.379Z</time></trkpt><trkpt lat="41.4185229" lon="2.1204329"><ele>383.5</ele><time>2026-04-25T09:41:58.416Z</time></trkpt><trkpt lat="41.4184591" lon="2.1203702"><ele>382.66666666666663</ele><time>2026-04-25T09:42:06.37Z</time></trkpt><trkpt lat="41.4184814" lon="2.1202127"><ele>381.8333333333333</ele><time>2026-04-25T09:42:55.43Z</time></trkpt><trkpt lat="41.4184503" lon="2.1201281"><ele>381.0</ele><time>2026-04-25T09:43:02.432Z</time></trkpt><trkpt lat="41.4184264" lon="2.1200477"><ele>383.5</ele><time>2026-04-25T09:43:08.414Z</time></trkpt><trkpt lat="41.4183451" lon="2.119897"><ele>386.0</ele><time>2026-04-25T09:43:16.486Z</time></trkpt><trkpt lat="41.41831" lon="2.1198257"><ele>388.5</ele><time>2026-04-25T09:43:19.447Z</time></trkpt><trkpt lat="41.4182763" lon="2.1197296"><ele>391.0</ele><time>2026-04-25T09:43:23.479Z</time></trkpt><trkpt lat="41.4182073" lon="2.1197028"><ele>393.5</ele><time>2026-04-25T09:43:27.409Z</time></trkpt><trkpt lat="41.4181667" lon="2.1196214"><ele>396.0</ele><time>2026-04-25T09:43:32.383Z</time></trkpt><trkpt lat="41.418142" lon="2.1195411"><ele>396.0</ele><time>2026-04-25T09:43:35.681Z</time></trkpt><trkpt lat="41.4181161" lon="2.1194539"><ele>396.0</ele><time>2026-04-25T09:43:40.158Z</time></trkpt><trkpt lat="41.4180908" lon="2.1193588"><ele>396.0</ele><time>2026-04-25T09:43:45.471Z</time></trkpt><trkpt lat="41.418059" lon="2.1192813"><ele>396.0</ele><time>2026-04-25T09:43:51.802Z</time></trkpt><trkpt lat="41.4180287" lon="2.11919"><ele>396.0</ele><time>2026-04-25T09:43:58.541Z</time></trkpt><trkpt lat="41.4180144" lon="2.119099"><ele>396.0</ele><time>2026-04-25T09:44:04.482Z</time></trkpt><trkpt lat="41.417976" lon="2.1190248"><ele>396.0</ele><time>2026-04-25T09:44:09.461Z</time></trkpt><trkpt lat="41.4180131" lon="2.1189356"><ele>397.0</ele><time>2026-04-25T09:44:16.367Z</time></trkpt><trkpt lat="41.4180175" lon="2.1188453"><ele>398.0</ele><time>2026-04-25T09:44:23.471Z</time></trkpt><trkpt lat="41.4180725" lon="2.1187894"><ele>399.0</ele><time>2026-04-25T09:44:28.463Z</time></trkpt><trkpt lat="41.4181285" lon="2.1187175"><ele>400.0</ele><time>2026-04-25T09:44:33.453Z</time></trkpt><trkpt lat="41.4181802" lon="2.1186432"><ele>401.0</ele><time>2026-04-25T09:44:37.375Z</time></trkpt><trkpt lat="41.418217" lon="2.1185651"><ele>402.0</ele><time>2026-04-25T09:44:42.479Z</time></trkpt><trkpt lat="41.418232" lon="2.1184765"><ele>403.0</ele><time>2026-04-25T09:44:48.425Z</time></trkpt><trkpt lat="41.4182271" lon="2.1183783"><ele>403.0</ele><time>2026-04-25T09:44:53.417Z</time></trkpt><trkpt lat="41.4182096" lon="2.1182848"><ele>403.0</ele><time>2026-04-25T09:44:56.505Z</time></trkpt><trkpt lat="41.418198" lon="2.1181982"><ele>403.0</ele><time>2026-04-25T09:44:59.475Z</time></trkpt><trkpt lat="41.4181797" lon="2.1181049"><ele>403.0</ele><time>2026-04-25T09:45:04.465Z</time></trkpt><trkpt lat="41.4181708" lon="2.1180076"><ele>403.0</ele><time>2026-04-25T09:45:09.455Z</time></trkpt><trkpt lat="41.418172" lon="2.1179236"><ele>403.0</ele><time>2026-04-25T09:45:14.444Z</time></trkpt><trkpt lat="41.418142" lon="2.1178248"><ele>403.0</ele><time>2026-04-25T09:45:21.452Z</time></trkpt><trkpt lat="41.4181196" lon="2.1177212"><ele>405.42857142857144</ele><time>2026-04-25T09:45:25.49Z</time></trkpt><trkpt lat="41.4180996" lon="2.117622"><ele>407.85714285714283</ele><time>2026-04-25T09:45:30.477Z</time></trkpt><trkpt lat="41.4180952" lon="2.1175377"><ele>410.2857142857143</ele><time>2026-04-25T09:45:34.396Z</time></trkpt><trkpt lat="41.4180632" lon="2.1174598"><ele>412.7142857142857</ele><time>2026-04-25T09:45:38.434Z</time></trkpt><trkpt lat="41.418008" lon="2.1174095"><ele>415.1428571428571</ele><time>2026-04-25T09:45:44.506Z</time></trkpt><trkpt lat="41.417946" lon="2.117373"><ele>417.57142857142856</ele><time>2026-04-25T09:45:48.397Z</time></trkpt><trkpt lat="41.4178909" lon="2.1173179"><ele>420.0</ele><time>2026-04-25T09:45:53.383Z</time></trkpt><trkpt lat="41.417832" lon="2.1172826"><ele>420.0</ele><time>2026-04-25T09:46:01.481Z</time></trkpt><trkpt lat="41.4177678" lon="2.1173184"><ele>420.0</ele><time>2026-04-25T09:46:07.398Z</time></trkpt><trkpt lat="41.4177057" lon="2.1173383"><ele>420.0</ele><time>2026-04-25T09:46:11.302Z</time></trkpt><trkpt lat="41.4176345" lon="2.1173152"><ele>420.0</ele><time>2026-04-25T09:46:17.494Z</time></trkpt><trkpt lat="41.4175604" lon="2.117321"><ele>420.0</ele><time>2026-04-25T09:46:22.367Z</time></trkpt><trkpt lat="41.4174966" lon="2.1172802"><ele>420.0</ele><time>2026-04-25T09:46:29.384Z</time></trkpt><trkpt lat="41.4174554" lon="2.1172097"><ele>420.0</ele><time>2026-04-25T09:46:35.427Z</time></trkpt><trkpt lat="41.4173835" lon="2.1172077"><ele>420.0</ele><time>2026-04-25T09:46:39.464Z</time></trkpt><trkpt lat="41.4173206" lon="2.117188"><ele>420.0</ele><time>2026-04-25T09:46:43.491Z</time></trkpt><trkpt lat="41.4172481" lon="2.1171706"><ele>420.0</ele><time>2026-04-25T09:46:49.417Z</time></trkpt><trkpt lat="41.4171854" lon="2.1171225"><ele>420.0</ele><time>2026-04-25T09:46:54.393Z</time></trkpt><trkpt lat="41.4171182" lon="2.1170872"><ele>420.0</ele><time>2026-04-25T09:47:01.406Z</time></trkpt><trkpt lat="41.4170746" lon="2.117023"><ele>420.0</ele><time>2026-04-25T09:47:04.478Z</time></trkpt><trkpt lat="41.4170502" lon="2.1169338"><ele>420.0</ele><time>2026-04-25T09:47:09.323Z</time></trkpt><trkpt lat="41.4170312" lon="2.1168485"><ele>418.1666666666667</ele><time>2026-04-25T09:47:15.412Z</time></trkpt><trkpt lat="41.416957" lon="2.1168138"><ele>416.33333333333337</ele><time>2026-04-25T09:47:21.464Z</time></trkpt><trkpt lat="41.4169188" lon="2.1167246"><ele>414.5</ele><time>2026-04-25T09:47:26.447Z</time></trkpt><trkpt lat="41.4168591" lon="2.116663"><ele>412.6666666666667</ele><time>2026-04-25T09:47:30.357Z</time></trkpt><trkpt lat="41.4168918" lon="2.1165691"><ele>410.83333333333337</ele><time>2026-04-25T09:47:34.516Z</time></trkpt><trkpt lat="41.4168758" lon="2.1164632"><ele>409.0</ele><time>2026-04-25T09:47:38.483Z</time></trkpt><trkpt lat="41.4169454" lon="2.1164663"><ele>409.0</ele><time>2026-04-25T09:47:43.399Z</time></trkpt><trkpt lat="41.4169218" lon="2.1163271"><ele>409.0</ele><time>2026-04-25T09:47:49.365Z</time></trkpt><trkpt lat="41.4168988" lon="2.1162276"><ele>409.0</ele><time>2026-04-25T09:47:52.467Z</time></trkpt><trkpt lat="41.4168584" lon="2.1161567"><ele>409.0</ele><time>2026-04-25T09:47:56.424Z</time></trkpt><trkpt lat="41.4168565" lon="2.1160517"><ele>409.0</ele><time>2026-04-25T09:48:00.323Z</time></trkpt><trkpt lat="41.4168075" lon="2.1159746"><ele>409.0</ele><time>2026-04-25T09:48:03.384Z</time></trkpt></trkseg></trk></gpx>